Santa Fe, NM

6:40 PM MST on December 22, 2014 (GMT -0700)
Santa Fe Municipal | Change Station
CLOSE
Current Station
Airport
Location: Santa Fe,
Elevation: 6345 ft
Nearby Weather Stations

Elev 6345 ft 35.62 °N, 106.09 °W | Updated 47 minutes ago

Overcast
Overcast
38 °F
Feels Like 29 °F
N
16
Wind Variable Wind from North
Gusts 29 mph

Today
High -- | Low -- °F
--% Chance of Precip.
Yesterday
High -- | Low -- °F
Precip. -- in
7:10 AM 4:55 PM
New Moon, 1% visible
Pressure 29.63 in
Visibility 10.0 miles
Clouds Scattered Clouds 6000 ft
Windchill 29 °F
Dew Point 27 °F
Humidity 65%
Rainfall 0.00 in
Snow Depth Not available.
UV 0 out of 12
Pollen 5.00 out of 12
Air Quality Not available.
Flu Activity Not available.
METAR KSAF 230053Z 01014G25KT 10SM SCT060 03/M03 A2971 RMK AO2 PK WND 33038/2356 SLP034 T00331028

More Conditions Fewer Conditions

Pressure 29.63 in
Visibility 10.0 miles
Clouds Scattered Clouds 6000 ft
Windchill 29 °F
Dew Point 27 °F
Humidity 65%
Rainfall 0.00 in
Snow Depth Not available.
UV 0 out of 12
Pollen 5.00 out of 12
Air Quality Not available.
Flu Activity Not available.
METAR KSAF 230053Z 01014G25KT 10SM SCT060 03/M03 A2971 RMK AO2 PK WND 33038/2356 SLP034 T00331028

More Conditions Fewer Conditions

Nowcast | as of 6:22 PM MST on December 22, 2014

Periodic snow bands will continue over the Sangre de Cristo Mountains...Raton Mesa...Johnson Ridge...and into the east Central Plains and Highlands of New Mexico through the evening hours. Locations such as Espanola...Cowles...Mora...Las Vegas...Clines Corners...Trujillo...Tucumcari...Santa Rosa and Ragland will accumulate an additional one to two inches of fresh snow before 8 PM. Some snow packed and icy roads are expected along interstates 25 and 40...and also on U.S. Highways 64 and 87. Visibility will reduce to less than a half mile at times in periods of heavier snow. For the latest Road conditions dial 5 1 1 or visit nmroads.Com.

×

10-Day Weather Forecast

Almanac

Astronomy

Dec. 22, 2014 Rise Set
Actual Time
Civil Twilight
Nautical Twilight
Astronomical Twilight
Moon
Length of Visible Light
Length of Day
Tomorrow will be .
, % of the Moon is Illuminated

Today's Extremes

State Highs State Lows

Community

WunderPhotos

Upload Photos

1,779,753 photos uploaded!

WunderBlogs® & News

Nearby

Air Quality

  Air Quality AQ Index Pollutant
Not available.

Snow Depth

Station Depth Elevation

Earthquake Activity

City Distance Mag. Time & Date
Minimum magnitude displayed is 2.5.

Coastal Water Temperatures

Place Temperature

Nearby Weather Stations